Details for AirAsia X Thailand at VTBD




Go Back


Latest METAR
Local Time

VTBD 241330Z VRB02KT 9000 FEW020 28/25 Q1013 NOSIG

24/02/2018, 20:39:52

Description
Results
AirAsia X Thailand Logo
Number of Pilots based at VTBD
0 Pilots Based here
Number of AirAsia X Thailand Flights Departed from VTBD
0 Flights Departed
Number of AirAsia X Thailand Flights Arrived at VTBD
0 Flights Arrived
Number of AirAsia X Thailand Schedules Departing from VTBD
9 Schedules
Number of AirAsia X Thailand Schedules Arriving at VTBD
9 Schedules
Number of AirAsia X Thailand Schedules Departing from VTBD availible today
7 Schedules Today
Number of AirAsia X Thailand Schedules Arriving at VTBD availible today
7 Schedules Today
Average Landing Rate at VTBD
0 fpm
AirAsia X Thailand Average Landing Rate at VTBD
0 fpm
Total Fuel Purchased at VTBD by AirAsia X Thailand
0.00 kgs / 0.00 lbs

Pilots Based at VTBD


Pilot ID
Pilot Name
Pilot Rank
No. of Flights
No. of Flying Hours
There are no pilots assigned to this hub!   Will you be the first?
Content